Time;durP1;ratioP1;P1;durP2;ratioP2;P2;SDS_P1;SDS_P2;PMS_P1;PMS_P2;Temp;Humidity;BMP_temperature;BMP_pressure;BME280_temperature;BME280_humidity;BME280_pressure;Samples;Min_cycle;Max_cycle;Signal;HPM_P1;HPM_P2
2020/12/19 00:00:52;;;;;;;13.15;9.03;;;;;;;-0.03;89.42;94111.98;1769197;80;21066;-79
2020/12/19 00:03:20;;;;;;;16.75;10.68;;;;;;;-0.02;89.45;94113.00;1785202;79;21170;-80
2020/12/19 00:05:49;;;;;;;14.50;10.25;;;;;;;0.02;89.45;94115.05;1790775;78;21191;-79
2020/12/19 00:08:18;;;;;;;14.05;9.95;;;;;;;0.02;89.37;94117.17;1766223;80;22228;-79
2020/12/19 00:10:46;;;;;;;14.55;10.03;;;;;;;-0.02;89.35;94119.68;1740864;82;21151;-77
2020/12/19 00:13:14;;;;;;;12.30;9.55;;;;;;;-0.03;89.56;94114.66;1809301;79;22164;-77
2020/12/19 00:15:42;;;;;;;12.78;9.28;;;;;;;-0.04;89.49;94107.19;1778647;79;21449;-78
2020/12/19 00:18:10;;;;;;;14.50;10.13;;;;;;;-0.07;89.42;94109.14;1750280;80;21174;-78
2020/12/19 00:20:39;;;;;;;14.63;9.20;;;;;;;-0.09;89.47;94111.88;1758976;80;21673;-77
2020/12/19 00:23:07;;;;;;;12.47;8.90;;;;;;;-0.12;89.68;94107.14;1804873;77;21164;-80
2020/12/19 00:25:35;;;;;;;13.73;9.47;;;;;;;-0.13;89.84;94115.72;1847223;77;21178;-78
2020/12/19 00:28:03;;;;;;;12.15;9.23;;;;;;;-0.13;89.76;94110.92;1819715;76;21127;-80
2020/12/19 00:30:31;;;;;;;13.20;9.55;;;;;;;-0.14;89.86;94113.37;1806612;79;21209;-79
2020/12/19 00:32:59;;;;;;;14.60;9.65;;;;;;;-0.16;90.02;94110.20;1722575;82;22642;-79
2020/12/19 00:35:28;;;;;;;10.98;8.55;;;;;;;-0.14;90.08;94108.02;1728330;78;21614;-80
2020/12/19 00:37:56;;;;;;;12.33;8.55;;;;;;;-0.12;89.99;94115.95;1782576;80;21605;-80
2020/12/19 00:40:25;;;;;;;12.25;8.33;;;;;;;-0.12;89.91;94112.49;1787827;79;21159;-78
2020/12/19 00:42:53;;;;;;;11.85;8.78;;;;;;;-0.13;90.00;94116.27;1787285;79;21644;-81
2020/12/19 00:45:21;;;;;;;10.70;8.23;;;;;;;-0.08;90.15;94114.78;1776426;78;22743;-78
2020/12/19 00:47:49;;;;;;;12.13;8.48;;;;;;;-0.07;89.97;94113.70;1807073;78;21231;-78
2020/12/19 00:50:17;;;;;;;9.68;8.00;;;;;;;-0.07;89.89;94109.70;1700006;80;21136;-78
2020/12/19 00:52:46;;;;;;;28.95;18.65;;;;;;;-0.08;89.99;94110.77;1779310;78;21199;-79
2020/12/19 00:55:14;;;;;;;23.67;15.45;;;;;;;-0.05;90.17;94104.25;1812094;78;21107;-78
2020/12/19 00:57:42;;;;;;;40.50;24.40;;;;;;;0.03;90.06;94103.25;1735110;82;22080;-79
2020/12/19 01:00:10;;;;;;;48.95;28.40;;;;;;;0.08;90.02;94099.89;1732628;81;21084;-78
2020/12/19 01:02:38;;;;;;;57.75;32.10;;;;;;;0.13;89.96;94102.41;1766903;80;22032;-79
2020/12/19 01:05:10;;;;;;;56.35;31.73;;;;;;;0.17;89.80;94098.01;1762722;81;21178;-77
2020/12/19 01:07:38;;;;;;;50.03;29.70;;;;;;;0.21;89.67;94090.92;1713027;81;21179;-77
2020/12/19 01:10:11;;;;;;;55.75;31.40;;;;;;;0.20;89.41;94092.03;1726838;81;21213;-77
2020/12/19 01:12:40;;;;;;;51.48;28.25;;;;;;;0.17;89.37;94095.89;1764715;80;21610;-82
2020/12/19 01:15:08;;;;;;;45.40;28.20;;;;;;;0.13;89.36;94094.94;1773751;80;21473;-79
2020/12/19 01:17:39;;;;;;;41.02;25.60;;;;;;;0.08;89.38;94097.22;1756603;80;21198;-78
2020/12/19 01:20:08;;;;;;;26.25;17.40;;;;;;;0.06;89.43;94103.97;1773949;80;21245;-78
2020/12/19 01:22:36;;;;;;;32.13;19.98;;;;;;;0.04;89.61;94100.28;1786368;80;21201;-79
2020/12/19 01:25:04;;;;;;;29.32;18.48;;;;;;;0.09;89.69;94100.67;1776397;80;21151;-77
2020/12/19 01:27:32;;;;;;;26.15;16.77;;;;;;;0.12;89.66;94094.70;1770375;80;21147;-79
2020/12/19 01:30:00;;;;;;;31.10;19.67;;;;;;;0.14;89.49;94095.95;1781540;78;21162;-78
2020/12/19 01:32:28;;;;;;;23.15;14.63;;;;;;;0.10;89.27;94096.34;1823414;78;21154;-79
2020/12/19 01:34:57;;;;;;;26.55;16.57;;;;;;;0.06;89.54;94098.62;1821452;78;21329;-78
2020/12/19 01:37:26;;;;;;;28.17;16.87;;;;;;;0.08;89.71;94095.88;1802337;79;21210;-79
2020/12/19 01:39:54;;;;;;;27.10;15.72;;;;;;;0.11;89.66;94100.58;1791457;79;21194;-77
2020/12/19 01:42:23;;;;;;;28.55;18.02;;;;;;;0.09;89.39;94098.00;1803551;78;21124;-78
2020/12/19 01:44:51;;;;;;;28.83;18.48;;;;;;;0.07;89.59;94096.17;1804017;78;21183;-79
2020/12/19 01:47:21;;;;;;;18.02;12.60;;;;;;;0.08;89.71;94094.55;1770005;81;21209;-79
2020/12/19 01:49:49;;;;;;;16.73;11.73;;;;;;;0.12;89.66;94094.70;1844658;77;21155;-78
2020/12/19 01:52:20;;;;;;;16.60;11.95;;;;;;;0.09;89.42;94092.66;1780980;77;21618;-79
2020/12/19 01:54:48;;;;;;;17.02;11.20;;;;;;;0.04;89.54;94094.13;1745112;81;21153;-78
2020/12/19 01:57:18;;;;;;;12.10;9.33;;;;;;;0.04;89.70;94092.27;1802454;78;21686;-79
2020/12/19 01:59:46;;;;;;;14.78;9.53;;;;;;;0.08;89.71;94098.55;1750478;79;21481;-80
2020/12/19 02:02:15;;;;;;;12.65;8.98;;;;;;;0.11;89.67;94099.80;1812055;79;21135;-78
2020/12/19 02:04:43;;;;;;;13.40;9.45;;;;;;;0.10;89.46;94098.23;1765956;80;21196;-79
2020/12/19 02:07:12;;;;;;;12.70;9.33;;;;;;;0.07;89.50;94106.88;1759223;80;21218;-78
2020/12/19 02:09:41;;;;;;;11.03;8.18;;;;;;;0.03;89.56;94097.91;1830290;76;21123;-78
2020/12/19 02:12:09;;;;;;;12.53;8.93;;;;;;;-0.05;89.66;94102.13;1853503;76;22454;-78
2020/12/19 02:14:42;;;;;;;11.03;8.25;;;;;;;-0.06;89.94;94100.56;1753110;81;21651;-80
2020/12/19 02:17:12;;;;;;;10.40;8.53;;;;;;;-0.02;89.99;94103.64;1797137;79;21237;-78
2020/12/19 02:19:42;;;;;;;;;;;;;;;0.04;90.03;94098.95;1787746;80;21163;-78
2020/12/19 02:22:10;;;;;;;10.43;7.95;;;;;;;0.08;89.94;94100.45;1784183;79;20268;-80
2020/12/19 02:24:38;;;;;;;10.30;8.40;;;;;;;0.10;89.84;94100.35;1826735;77;21627;-79
2020/12/19 02:27:06;;;;;;;9.78;7.80;;;;;;;0.10;89.75;94088.88;1716042;79;21207;-79
2020/12/19 02:29:34;;;;;;;10.38;8.13;;;;;;;0.12;89.71;94096.05;1808474;79;21175;-80
2020/12/19 02:32:02;;;;;;;12.58;8.38;;;;;;;0.12;89.57;94096.83;1821053;78;21115;-79
2020/12/19 02:34:30;;;;;;;9.80;7.80;;;;;;;0.11;89.66;94092.56;1791464;78;21156;-80
2020/12/19 02:36:58;;;;;;;11.83;7.78;;;;;;;0.14;89.69;94099.18;1769301;79;21445;-79
2020/12/19 02:39:27;;;;;;;9.58;7.45;;;;;;;0.16;89.64;94089.75;1780592;79;21176;-79
2020/12/19 02:41:55;;;;;;;9.18;7.45;;;;;;;0.18;89.58;94089.42;1776551;79;21111;-79
2020/12/19 02:44:24;;;;;;;10.05;7.70;;;;;;;0.17;89.49;94089.98;1750732;81;21142;-78
2020/12/19 02:46:54;;;;;;;9.18;7.70;;;;;;;0.18;89.44;94090.77;1764839;80;21146;-79
2020/12/19 02:49:22;;;;;;;9.85;7.30;;;;;;;0.16;89.30;94088.41;1780837;80;22490;-77
2020/12/19 02:51:50;;;;;;;10.23;8.00;;;;;;;0.10;89.16;94092.88;1707568;80;21177;-78
2020/12/19 02:54:19;;;;;;;10.05;7.65;;;;;;;0.01;89.37;94092.09;1750327;81;21156;-80
2020/12/19 02:56:47;;;;;;;11.63;7.17;;;;;;;-0.02;89.64;94094.83;1802142;79;21100;-81
2020/12/19 02:59:43;;;;;;;9.55;7.12;;;;;;;0.01;89.85;94098.78;1800765;78;21169;-81
2020/12/19 03:02:11;;;;;;;;;;;;;;;0.02;89.64;94094.45;1795384;79;21529;-79
2020/12/19 03:04:39;;;;;;;11.18;8.30;;;;;;;-0.03;89.68;94094.60;1766302;80;20280;-78
2020/12/19 03:07:07;;;;;;;11.15;8.53;;;;;;;-0.03;89.83;94095.39;1801043;78;21104;-81
2020/12/19 03:09:35;;;;;;;10.80;8.25;;;;;;;-0.02;89.86;94096.95;1812423;78;21455;-78
2020/12/19 03:12:04;;;;;;;11.57;8.23;;;;;;;-0.01;89.89;94095.06;1753088;81;21151;-79
2020/12/19 03:14:32;;;;;;;11.12;8.28;;;;;;;0.04;89.96;94096.27;1819872;78;21194;-80
2020/12/19 03:17:00;;;;;;;10.88;7.75;;;;;;;0.03;89.76;94097.34;1810236;79;21124;-81
2020/12/19 03:19:28;;;;;;;11.22;7.87;;;;;;;0.02;89.83;94097.12;1761524;80;21283;-81
2020/12/19 03:21:56;;;;;;;11.68;8.38;;;;;;;0.03;89.91;94095.23;1793129;79;21167;-79
2020/12/19 03:24:24;;;;;;;21.45;13.90;;;;;;;0.02;89.89;94099.02;1766651;79;21170;-78
2020/12/19 03:26:52;;;;;;;27.05;17.17;;;;;;;0.06;90.06;94096.73;1798629;79;22101;-79
2020/12/19 03:29:21;;;;;;;24.07;16.20;;;;;;;0.11;90.04;94098.46;1776927;79;21794;-81
2020/12/19 03:31:49;;;;;;;24.25;16.67;;;;;;;0.15;89.80;94100.22;1757766;81;21198;-79
2020/12/19 03:34:17;;;;;;;25.92;17.05;;;;;;;0.12;89.55;94100.84;1770017;79;21588;-79
2020/12/19 03:36:46;;;;;;;26.12;17.40;;;;;;;0.06;89.63;94099.41;1811395;78;21188;-79
2020/12/19 03:39:14;;;;;;;26.30;15.23;;;;;;;0.06;89.76;94099.95;1794211;79;21191;-80
2020/12/19 03:41:42;;;;;;;23.73;14.07;;;;;;;0.05;89.73;94096.50;1854702;77;21108;-79
2020/12/19 03:44:10;;;;;;;20.52;13.65;;;;;;;0.04;89.67;94094.94;1841299;77;21187;-81
2020/12/19 03:46:39;;;;;;;18.67;12.03;;;;;;;0.00;89.67;94091.31;1818057;78;21536;-79
2020/12/19 03:49:07;;;;;;;18.85;11.93;;;;;;;-0.05;89.68;94082.08;1811431;77;21106;-78
2020/12/19 03:51:36;;;;;;;17.00;10.90;;;;;;;-0.08;89.95;94085.38;1855761;77;21474;-79
2020/12/19 03:54:04;;;;;;;13.13;9.08;;;;;;;-0.05;90.26;94082.08;1813033;79;21190;-80
2020/12/19 03:56:32;;;;;;;65.95;37.63;;;;;;;0.00;90.31;94087.30;1814847;78;21155;-80
2020/12/19 03:59:00;;;;;;;54.83;31.17;;;;;;;-0.01;89.99;94086.48;1804788;78;21435;-78
2020/12/19 04:01:28;;;;;;;49.45;30.80;;;;;;;-0.05;89.78;94088.77;1787659;78;21661;-80
2020/12/19 04:03:56;;;;;;;51.08;31.55;;;;;;;-0.14;89.89;94086.64;1814556;77;21203;-79
2020/12/19 04:06:24;;;;;;;54.63;32.48;;;;;;;-0.21;90.08;94090.31;1812475;79;21515;-80
2020/12/19 04:08:52;;;;;;;50.78;33.38;;;;;;;-0.21;90.37;94088.97;1818389;77;21155;-81
2020/12/19 04:11:20;;;;;;;51.33;30.55;;;;;;;-0.22;90.36;94096.77;1810104;77;21177;-80
2020/12/19 04:13:49;;;;;;;45.38;26.65;;;;;;;-0.26;90.46;94088.02;1803978;79;21108;-79
2020/12/19 04:16:17;;;;;;;58.40;36.33;;;;;;;-0.27;90.56;94086.98;1810976;78;21644;-79
2020/12/19 04:18:45;;;;;;;68.00;43.65;;;;;;;-0.28;90.66;94093.43;1822717;77;21185;-80
2020/12/19 04:21:14;;;;;;;65.12;42.03;;;;;;;-0.33;90.68;94091.69;1852583;77;21154;-79
2020/12/19 04:23:43;;;;;;;69.92;40.50;;;;;;;-0.38;90.82;94083.80;1829012;77;21180;-80
2020/12/19 04:26:11;;;;;;;73.28;42.27;;;;;;;-0.40;90.97;94088.68;1809160;78;21167;-78
2020/12/19 04:28:39;;;;;;;72.25;40.70;;;;;;;-0.41;91.08;94081.77;1807327;78;21586;-81
2020/12/19 04:31:07;;;;;;;75.70;42.62;;;;;;;-0.41;91.16;94082.32;1805477;79;21244;-78
2020/12/19 04:33:35;;;;;;;73.28;43.23;;;;;;;-0.43;91.16;94081.27;1799979;78;21195;-80
2020/12/19 04:36:04;;;;;;;73.05;44.38;;;;;;;-0.43;91.24;94081.83;1815936;79;21163;-81
2020/12/19 04:38:32;;;;;;;78.28;46.60;;;;;;;-0.41;91.38;94080.98;1832602;78;21610;-79
2020/12/19 04:41:00;;;;;;;76.22;42.75;;;;;;;-0.37;91.32;94077.93;1814519;77;22409;-81
2020/12/19 04:43:28;;;;;;;77.60;43.40;;;;;;;-0.38;91.23;94080.34;1767696;78;21038;-79
2020/12/19 04:45:57;;;;;;;72.45;41.55;;;;;;;-0.37;91.36;94076.59;1810235;78;21160;-79
2020/12/19 04:48:25;;;;;;;73.07;43.60;;;;;;;-0.34;91.31;94075.42;1799705;79;21148;-78
2020/12/19 04:50:53;;;;;;;74.00;42.48;;;;;;;-0.33;91.19;94079.66;1806816;79;21569;-79
2020/12/19 04:53:22;;;;;;;77.72;43.23;;;;;;;-0.30;91.28;94075.05;1762307;79;22265;-80
2020/12/19 04:55:50;;;;;;;70.72;42.60;;;;;;;-0.26;91.27;94075.99;1750998;80;21171;-79
2020/12/19 04:58:19;;;;;;;68.02;40.25;;;;;;;-0.26;90.92;94071.20;1758141;79;21583;-81
2020/12/19 05:00:47;;;;;;;51.48;31.25;;;;;;;-0.30;90.96;94071.03;1813983;78;21636;-82
2020/12/19 05:03:16;;;;;;;47.15;31.45;;;;;;;-0.26;91.20;94071.20;1814620;79;21151;-79
2020/12/19 05:05:45;;;;;;;43.90;29.65;;;;;;;-0.26;91.00;94069.31;1804015;79;22051;-80
2020/12/19 05:08:13;;;;;;;40.28;25.82;;;;;;;-0.29;91.01;94068.59;1809501;78;21151;-79
2020/12/19 05:10:44;;;;;;;34.27;21.40;;;;;;;-0.34;90.98;94066.08;1802944;78;21160;-78
2020/12/19 05:13:12;;;;;;;31.17;19.73;;;;;;;-0.38;91.07;94070.98;1773205;79;21599;-79
2020/12/19 05:15:40;;;;;;;33.48;21.42;;;;;;;-0.44;91.22;94071.69;1764790;80;21603;-80
2020/12/19 05:18:08;;;;;;;39.67;24.25;;;;;;;-0.43;91.55;94069.80;1745302;79;21645;-78
2020/12/19 05:20:36;;;;;;;38.60;24.85;;;;;;;-0.39;91.63;94070.20;1754005;81;21181;-81
2020/12/19 05:23:07;;;;;;;30.27;18.87;;;;;;;-0.34;91.52;94062.06;1769342;79;21725;-80
2020/12/19 05:25:38;;;;;;;35.23;20.77;;;;;;;-0.31;91.35;94061.42;1790222;78;21689;-79
2020/12/19 05:28:08;;;;;;;32.75;18.60;;;;;;;-0.33;91.22;94063.63;1800154;78;21143;-79
2020/12/19 05:30:36;;;;;;;27.00;15.20;;;;;;;-0.36;91.25;94068.25;1762757;79;21802;-79
2020/12/19 05:33:04;;;;;;;72.85;43.95;;;;;;;-0.35;91.33;94061.80;1777856;79;21173;-79
2020/12/19 05:35:34;;;;;;;74.47;47.53;;;;;;;-0.31;91.30;94059.30;1792994;79;21147;-78
2020/12/19 05:38:04;;;;;;;71.55;44.60;;;;;;;-0.30;91.29;94060.87;1830174;76;21533;-81
2020/12/19 05:40:34;;;;;;;89.07;52.13;;;;;;;-0.29;91.18;94071.27;1783180;80;21128;-83
2020/12/19 05:43:02;;;;;;;78.78;46.35;;;;;;;-0.30;91.06;94063.02;1776517;80;21204;-80
2020/12/19 05:45:30;;;;;;;79.27;46.73;;;;;;;-0.32;90.89;94061.74;1791486;80;21135;-78
2020/12/19 05:47:58;;;;;;;62.78;35.30;;;;;;;-0.41;90.86;94060.39;1767577;80;21944;-79
2020/12/19 05:50:26;;;;;;;47.03;29.15;;;;;;;-0.44;90.99;94050.31;1750829;81;21175;-80
2020/12/19 05:52:55;;;;;;;27.32;17.60;;;;;;;-0.47;90.93;94058.16;1749419;80;21577;-78
2020/12/19 05:55:23;;;;;;;26.97;18.17;;;;;;;-0.50;91.18;94059.01;1809702;77;21191;-81
2020/12/19 05:57:51;;;;;;;20.80;14.38;;;;;;;-0.51;91.35;94063.34;1778310;80;21171;-80
2020/12/19 06:00:20;;;;;;;22.05;15.55;;;;;;;-0.52;91.45;94067.11;1843939;77;21211;-79
2020/12/19 06:02:48;;;;;;;33.03;20.77;;;;;;;-0.56;91.52;94069.61;1768818;77;21148;-79
2020/12/19 06:05:17;;;;;;;28.42;17.17;;;;;;;-0.56;91.59;94068.83;1806150;77;21546;-78
2020/12/19 06:07:50;;;;;;;30.47;18.07;;;;;;;-0.55;91.54;94073.85;1783484;78;21864;-83
2020/12/19 06:10:19;;;;;;;50.10;32.13;;;;;;;-0.52;91.47;94071.13;1795642;79;21484;-79
2020/12/19 06:13:08;;;;;;;54.57;34.97;;;;;;;-0.53;91.30;94072.20;1757590;81;21645;-79
2020/12/19 06:16:09;;;;;;;58.75;35.75;;;;;;;-0.56;91.28;94069.61;1774537;79;21178;-79
2020/12/19 06:19:14;;;;;;;45.90;26.47;;;;;;;-0.59;91.30;94066.22;1853120;77;21211;-79
2020/12/19 06:21:49;;;;;;;33.50;19.63;;;;;;;-0.62;91.44;94063.37;1779398;79;22512;-77
2020/12/19 06:24:48;;;;;;;32.85;20.37;;;;;;;-0.60;91.49;94061.17;1790547;77;21171;-80
2020/12/19 06:27:29;;;;;;;22.97;13.83;;;;;;;-0.62;91.43;94059.37;1746552;81;21174;-78
2020/12/19 06:29:57;;;;;;;25.03;15.47;;;;;;;-0.70;91.52;94062.25;1783652;78;21472;-79
2020/12/19 06:32:27;;;;;;;26.37;16.97;;;;;;;-0.69;91.72;94065.70;1809747;78;21685;-78
2020/12/19 06:35:08;;;;;;;31.68;19.23;;;;;;;-0.67;91.85;94067.53;1768667;79;22027;-78
2020/12/19 06:37:38;;;;;;;36.80;21.40;;;;;;;-0.65;91.98;94076.80;1746709;80;21164;-79
2020/12/19 06:40:11;;;;;;;40.20;25.23;;;;;;;-0.58;92.08;94070.45;1754683;80;21255;-78
2020/12/19 06:42:39;;;;;;;38.50;25.17;;;;;;;-0.53;92.14;94072.20;1745838;80;21145;-79
2020/12/19 06:45:27;;;;;;;39.13;25.43;;;;;;;-0.48;92.15;94074.75;1816357;78;21158;-80
2020/12/19 06:47:57;;;;;;;29.72;20.12;;;;;;;-0.41;92.14;94078.31;1820553;77;21602;-80
2020/12/19 06:50:28;;;;;;;32.40;21.00;;;;;;;-0.32;92.00;94079.89;1829486;76;21491;-79
2020/12/19 06:52:58;;;;;;;31.02;20.05;;;;;;;-0.24;91.78;94077.01;1744045;80;21159;-79
2020/12/19 06:55:40;;;;;;;30.05;20.72;;;;;;;-0.15;91.53;94081.03;1751009;80;21186;-77
2020/12/19 06:58:08;;;;;;;25.50;17.85;;;;;;;-0.09;91.28;94081.13;1713606;83;21171;-78
2020/12/19 07:00:37;;;;;;;32.60;21.73;;;;;;;-0.07;91.02;94086.97;1815943;78;22406;-79
2020/12/19 07:03:05;;;;;;;30.85;20.43;;;;;;;-0.08;90.96;94092.05;1743793;81;21651;-81
2020/12/19 07:05:35;;;;;;;31.42;20.25;;;;;;;-0.07;90.99;94095.77;1756926;80;33372;-79
2020/12/19 07:08:22;;;;;;;30.92;21.00;;;;;;;-0.05;90.94;94095.45;1773378;80;21220;-78
2020/12/19 07:10:51;;;;;;;34.15;23.85;;;;;;;-0.05;90.87;94093.56;1762320;80;21614;-81
2020/12/19 07:13:20;;;;;;;85.05;43.45;;;;;;;-0.05;90.76;94083.42;1713925;83;21659;-80
2020/12/19 07:15:50;;;;;;;82.75;43.45;;;;;;;-0.06;90.67;94080.52;1742355;82;21192;-79
2020/12/19 07:18:27;;;;;;;74.67;42.33;;;;;;;-0.05;90.66;94081.53;1784775;79;21195;-79
2020/12/19 07:21:02;;;;;;;70.87;42.75;;;;;;;-0.01;90.55;94083.03;1747616;80;21280;-79
2020/12/19 07:23:31;;;;;;;61.53;37.50;;;;;;;-0.04;90.16;94083.65;1726008;82;21682;-78
2020/12/19 07:26:00;;;;;;;51.28;32.80;;;;;;;-0.12;90.22;94080.41;1755514;80;22083;-79
2020/12/19 07:28:28;;;;;;;49.27;30.60;;;;;;;-0.20;90.41;94088.65;1788586;79;21182;-78
2020/12/19 07:30:57;;;;;;;46.08;27.93;;;;;;;-0.22;90.72;94080.17;1751062;80;21207;-80
2020/12/19 07:33:25;;;;;;;57.38;36.45;;;;;;;-0.17;90.98;94087.25;1785615;79;21199;-80
2020/12/19 07:35:54;;;;;;;93.30;58.35;;;;;;;-0.16;90.99;94086.14;1795785;79;21180;-78
2020/12/19 07:38:22;;;;;;;96.15;57.58;;;;;;;-0.11;91.08;94080.67;1809100;78;21800;-80
2020/12/19 07:40:53;;;;;;;86.53;52.15;;;;;;;-0.06;90.94;94084.52;1744649;82;22294;-78
2020/12/19 07:43:22;;;;;;;81.63;49.23;;;;;;;-0.05;90.86;94090.10;1738441;82;21204;-80
2020/12/19 07:45:58;;;;;;;62.50;39.95;;;;;;;-0.06;90.95;94098.67;1739693;81;21199;-80
2020/12/19 07:48:27;;;;;;;46.48;30.92;;;;;;;-0.02;91.11;94096.95;1791054;78;21152;-79
2020/12/19 07:50:55;;;;;;;45.30;30.40;;;;;;;0.04;91.13;94100.80;1747224;79;22511;-80
2020/12/19 07:53:23;;;;;;;53.78;33.55;;;;;;;0.08;91.09;94097.22;1806830;78;21206;-78
2020/12/19 07:55:51;;;;;;;51.13;32.00;;;;;;;0.12;90.99;94103.52;1746066;81;21206;-80
2020/12/19 07:58:20;;;;;;;55.88;37.15;;;;;;;0.15;90.88;94094.06;1741238;81;21542;-80
2020/12/19 08:00:48;;;;;;;64.82;41.63;;;;;;;0.20;90.91;94096.60;1741753;82;21606;-79
2020/12/19 08:03:17;;;;;;;59.38;37.85;;;;;;;0.29;91.00;94098.72;1728922;82;21215;-80
2020/12/19 08:05:54;;;;;;;50.35;33.40;;;;;;;0.42;90.71;94106.38;1741607;82;21938;-81
2020/12/19 08:08:23;;;;;;;53.50;33.80;;;;;;;0.48;90.28;94103.77;1797480;79;21184;-81
2020/12/19 08:10:56;;;;;;;53.52;34.67;;;;;;;0.56;89.89;94104.88;1740910;81;21566;-79
2020/12/19 08:13:24;;;;;;;71.97;46.23;;;;;;;0.60;89.67;94104.48;1794667;78;21195;-81
2020/12/19 08:15:55;;;;;;;67.42;44.83;;;;;;;0.63;89.54;94099.84;1789264;79;21179;-80
2020/12/19 08:18:23;;;;;;;59.15;36.77;;;;;;;0.68;89.34;94107.17;1776100;80;21164;-78
2020/12/19 08:20:52;;;;;;;62.80;41.68;;;;;;;0.71;89.24;94109.22;1820763;77;21594;-82
2020/12/19 08:23:21;;;;;;;53.02;32.88;;;;;;;0.75;89.17;94105.34;1785756;79;21889;-82
2020/12/19 08:25:51;;;;;;;51.48;33.40;;;;;;;0.81;89.04;94108.09;1774479;80;21425;-79
2020/12/19 08:28:20;;;;;;;55.25;35.48;;;;;;;0.87;88.83;94107.40;1814636;79;21188;-79
2020/12/19 08:30:50;;;;;;;60.43;39.03;;;;;;;0.91;88.76;94106.44;1806167;79;21186;-81
2020/12/19 08:33:18;;;;;;;57.05;37.30;;;;;;;0.97;88.86;94103.03;1829741;76;22134;-79
2020/12/19 08:35:47;;;;;;;60.52;40.03;;;;;;;1.04;88.62;94114.61;1785315;78;21619;-79
2020/12/19 08:38:21;;;;;;;47.48;29.60;;;;;;;1.07;88.13;94109.41;1820857;77;21241;-79
2020/12/19 08:40:50;;;;;;;51.05;32.00;;;;;;;1.09;87.96;94109.89;1765898;79;21277;-80
2020/12/19 08:43:20;;;;;;;40.12;25.02;;;;;;;1.08;87.90;94105.61;1750054;81;21170;-79
2020/12/19 08:45:49;;;;;;;35.52;23.60;;;;;;;1.10;87.72;94107.44;1820311;78;21153;-81
2020/12/19 08:48:23;;;;;;;33.98;21.68;;;;;;;1.09;87.30;94109.89;1766464;80;21184;-77
2020/12/19 08:50:53;;;;;;;42.40;27.02;;;;;;;1.07;87.22;94108.06;1754887;79;21473;-79
2020/12/19 08:53:25;;;;;;;42.40;27.00;;;;;;;1.08;87.26;94107.51;1818163;77;21260;-80
2020/12/19 08:55:54;;;;;;;47.35;30.02;;;;;;;1.09;87.05;94105.05;1787963;80;21188;-79
2020/12/19 08:58:29;;;;;;;36.38;23.25;;;;;;;1.06;86.86;94106.50;1787599;79;21200;-79
2020/12/19 09:01:02;;;;;;;43.00;28.55;;;;;;;1.08;86.96;94111.52;1810527;78;21198;-79
2020/12/19 09:03:33;;;;;;;42.90;26.77;;;;;;;1.06;86.96;94101.14;1843770;76;21641;-80
2020/12/19 09:06:06;;;;;;;43.15;27.60;;;;;;;1.05;86.90;94108.92;1786445;79;21191;-78
2020/12/19 09:08:40;;;;;;;36.17;23.45;;;;;;;1.05;86.99;94105.46;1785582;79;21133;-80
2020/12/19 09:11:11;;;;;;;42.45;26.17;;;;;;;1.04;86.95;94107.91;1759334;80;21524;-83
2020/12/19 09:13:40;;;;;;;40.50;26.45;;;;;;;1.03;86.92;94107.13;1838667;77;21239;-79
2020/12/19 09:16:10;;;;;;;41.33;27.42;;;;;;;1.02;86.94;94098.87;1755309;79;21551;-79
2020/12/19 09:18:39;;;;;;;45.40;29.60;;;;;;;1.06;87.06;94102.48;1757083;80;21659;-79
2020/12/19 09:21:09;;;;;;;49.98;30.82;;;;;;;1.11;87.33;94104.20;1798170;78;21191;-79
2020/12/19 09:23:38;;;;;;;54.65;30.92;;;;;;;1.15;87.40;94099.22;1815302;78;21939;-80
2020/12/19 09:26:08;;;;;;;54.23;34.45;;;;;;;1.19;87.28;94098.81;1790710;79;21224;-81
2020/12/19 09:28:36;;;;;;;47.30;27.80;;;;;;;1.26;87.12;94092.19;1774922;79;21196;-78
2020/12/19 09:31:05;;;;;;;45.78;28.27;;;;;;;1.34;86.94;94089.48;1791338;78;21191;-78
2020/12/19 09:33:33;;;;;;;44.67;26.95;;;;;;;1.39;86.82;94083.14;1809652;78;21476;-78
2020/12/19 09:36:01;;;;;;;41.28;25.95;;;;;;;1.42;86.82;94085.19;1787228;78;21174;-80
2020/12/19 09:38:29;;;;;;;32.83;21.10;;;;;;;1.44;86.46;94083.77;1795603;78;21205;-80
2020/12/19 09:40:57;;;;;;;40.28;26.12;;;;;;;1.46;86.18;94082.88;1818614;78;21383;-78
2020/12/19 09:43:25;;;;;;;29.70;17.50;;;;;;;1.51;85.63;94083.84;1778548;78;21198;-79
2020/12/19 09:45:55;;;;;;;23.07;14.33;;;;;;;1.58;85.14;94078.73;1797979;79;21195;-80
2020/12/19 09:48:23;;;;;;;21.57;13.08;;;;;;;1.63;83.87;94075.34;1812658;78;21195;-80
2020/12/19 09:50:51;;;;;;;24.47;16.93;;;;;;;1.62;83.67;94071.09;1801924;78;21203;-82
2020/12/19 09:53:19;;;;;;;25.55;16.50;;;;;;;1.65;83.44;94069.08;1803485;78;21170;-78
2020/12/19 09:55:47;;;;;;;29.45;18.10;;;;;;;1.71;83.67;94069.70;1772996;78;21271;-78
2020/12/19 09:58:16;;;;;;;37.05;24.10;;;;;;;1.76;83.45;94075.44;1736067;82;21189;-82
2020/12/19 10:00:45;;;;;;;18.98;12.73;;;;;;;1.82;83.02;94073.59;1774667;78;21176;-78
2020/12/19 10:03:14;;;;;;;13.20;8.65;;;;;;;1.85;81.27;94062.22;1811229;78;21082;-78
2020/12/19 10:05:42;;;;;;;12.82;8.18;;;;;;;1.86;79.97;94056.30;1799460;79;21162;-78
2020/12/19 10:08:12;;;;;;;18.77;11.63;;;;;;;1.87;78.95;94061.33;1799322;79;21404;-80
2020/12/19 10:10:46;;;;;;;13.40;9.15;;;;;;;1.91;79.86;94049.39;1822412;77;21513;-80
2020/12/19 10:13:14;;;;;;;7.00;4.80;;;;;;;1.95;79.13;94051.66;1789588;79;21179;-79
2020/12/19 10:15:42;;;;;;;3.52;2.77;;;;;;;2.01;77.86;94051.71;1782318;79;21207;-80
2020/12/19 10:18:10;;;;;;;2.12;1.87;;;;;;;2.04;76.28;94048.38;1776708;79;21187;-79
2020/12/19 10:20:38;;;;;;;1.57;1.47;;;;;;;2.07;75.75;94047.73;1764963;81;21204;-80
2020/12/19 10:23:06;;;;;;;1.67;1.52;;;;;;;2.10;74.32;94047.06;1785761;79;21346;-80
2020/12/19 10:25:35;;;;;;;13.03;7.47;;;;;;;2.12;73.01;94041.39;1813844;78;21183;-80
2020/12/19 10:28:03;;;;;;;5.10;4.17;;;;;;;2.13;73.25;94039.70;1792906;79;21469;-79
2020/12/19 10:30:31;;;;;;;3.92;3.20;;;;;;;2.16;73.32;94035.03;1788586;79;21219;-79
2020/12/19 10:32:59;;;;;;;2.50;1.95;;;;;;;2.22;70.65;94038.86;1826985;78;21190;-78
2020/12/19 10:35:27;;;;;;;2.85;2.27;;;;;;;2.22;71.45;94035.64;1783662;80;21151;-78
2020/12/19 10:37:55;;;;;;;2.40;2.20;;;;;;;2.21;71.02;94035.95;1797472;77;21180;-79
2020/12/19 10:40:24;;;;;;;4.10;2.70;;;;;;;2.22;70.96;94034.30;1756943;80;21164;-79
2020/12/19 10:42:52;;;;;;;2.30;1.70;;;;;;;2.29;70.71;94039.13;1788340;78;21162;-78
2020/12/19 10:45:20;;;;;;;2.90;2.52;;;;;;;2.32;70.80;94031.20;1806824;78;22061;-79
2020/12/19 10:47:49;;;;;;;3.37;2.65;;;;;;;2.34;69.87;94031.67;1803602;79;21601;-78
2020/12/19 10:50:19;;;;;;;2.30;2.10;;;;;;;2.33;69.28;94030.64;1813750;79;21246;-78
2020/12/19 10:52:48;;;;;;;2.33;2.08;;;;;;;2.30;69.22;94041.50;1780932;79;21159;-79
2020/12/19 10:55:16;;;;;;;3.30;2.55;;;;;;;2.28;69.80;94028.17;1829705;77;21148;-78
2020/12/19 10:57:44;;;;;;;5.42;4.03;;;;;;;2.30;69.12;94030.77;1842197;77;21203;-80
2020/12/19 11:00:13;;;;;;;4.17;2.92;;;;;;;2.27;69.32;94020.67;1815526;78;21178;-78
2020/12/19 11:02:41;;;;;;;3.92;3.27;;;;;;;2.23;69.36;94021.66;1787990;79;21192;-81
2020/12/19 11:05:09;;;;;;;4.25;3.52;;;;;;;2.17;70.04;94020.50;1845747;77;21183;-77
2020/12/19 11:07:37;;;;;;;5.35;4.33;;;;;;;2.13;69.80;94022.83;1822874;77;21652;-77
2020/12/19 11:10:06;;;;;;;4.50;3.95;;;;;;;2.06;69.70;94020.66;1777793;80;21204;-82
2020/12/19 11:12:34;;;;;;;5.12;4.00;;;;;;;1.99;69.36;94014.24;1783830;79;21033;-78
2020/12/19 11:15:03;;;;;;;4.42;3.15;;;;;;;1.93;69.71;94016.34;1811677;79;21222;-78
2020/12/19 11:17:34;;;;;;;3.95;3.25;;;;;;;1.93;70.29;94016.34;1784366;79;21174;-76
2020/12/19 11:20:04;;;;;;;3.30;3.00;;;;;;;1.92;70.35;94018.80;1818431;78;21170;-77
2020/12/19 11:22:32;;;;;;;1.90;1.80;;;;;;;1.87;69.86;94016.30;1785532;78;21647;-78
2020/12/19 11:25:00;;;;;;;2.05;1.90;;;;;;;1.83;70.05;94014.03;1799625;78;21537;-82
2020/12/19 11:27:30;;;;;;;3.65;3.35;;;;;;;1.79;70.49;94013.12;1758517;80;21262;-81
2020/12/19 11:30:00;;;;;;;2.83;2.62;;;;;;;1.76;70.86;94008.40;1767358;81;21207;-79
2020/12/19 11:32:28;;;;;;;1.85;1.75;;;;;;;1.71;70.17;94006.70;1798735;79;21180;-79
2020/12/19 11:34:56;;;;;;;1.80;1.70;;;;;;;1.66;70.22;94013.04;1747887;80;21202;-77
2020/12/19 11:37:24;;;;;;;1.52;1.42;;;;;;;1.62;70.75;94007.31;1799553;79;21215;-79